Andrews Air Force Base Camp Springs US
ICAO: KADW
IATA: ADW
Category: Large
Scheduled Services: No

Elevation: 280 ft
TransAlt. 18000 ft.

Airport Communications:
POTOMAC APP:119.3
ATIS:113.1
CLNC DEL:127.55
POTOMAC DEP:125.65
GND:121.8
AFRC OPS:143.8
PMSV METRO:34.46
COMD POST:141.55
PTD:139.3
TWR:118.4

KADW Zoom In..

If Map Doesn't Load, Click Here

Runways:

(A) RW 01L length 9318 ft width 200 ft
ILS 111.50 / hdg 10

(B) RW 01R length 9756 ft width 150 ft
ILS 110.50 / hdg 10

(C) RW 19L length 9756 ft width 150 ft
ILS 110.50 / hdg 190

(D) RW 19R length 9318 ft width 200 ft
ILS 111.50 / hdg 190

Location; KADW
Day. 26 / Time. 11.01 Zulu
* Altimeter: 30.01
* Temperature: 22° c. 71.6°f.
* Wind from: 210° Speed 05 kn.
Dewpoint: 22° c.
Visibility: 10 Statute Miles.
Clouds: Overcast 700 ft.

KADW 261101Z AUTO 21005KT 10SM OVC007 22/22 A3001 RMK AO2 CIG 004 RWY19L SLPNO $


Wind From 210°
Speed 05 kn.

 
 
jpsmedia.com for Web Design worldairports.se 2018   terms of use